Apache, Oklahoma
Current Conditions -  °F | °C
As of 7:58 PM on Sunday 23 Nov 2014 (Local Time) from KFSI Reporting Station
Overcast Overcast  
Wind Chill: 41°   Ceiling: 10000
Heat Index: 46°   Visibility: 10mi
Dew Point: 38°   Wind: 10mph
Humidity: 72%   Direction: 320°NW
Pressure: 29.73"   Gusts: 21mph
Location:  34.89°N, 98.37°W
Report Text: KFSI 240158Z AUTO 32009G18KT 10SM OVC100 08/03 A2973 RMK AO2 PK WND 34026/0059 DZB0056E0108 SLP066 P0000 T00800033
Loading
Personal Weather Stations






























Interactive Weather Map New forecast layout! Learn more

10-Day Weather Forecast

Advertisements
Track Severe Weather on mobile